Time;durP1;ratioP1;P1;durP2;ratioP2;P2;SDS_P1;SDS_P2;PMS_P1;PMS_P2;Temp;Humidity;BMP_temperature;BMP_pressure;BME280_temperature;BME280_humidity;BME280_pressure;Samples;Min_cycle;Max_cycle;Signal;HPM_P1;HPM_P2
2022/04/15 00:01:07;;;;;;;13.77;9.30;;;10.30;99.90;;;;;;5026429;28;20049;-61
2022/04/15 00:03:52;;;;;;;12.27;8.90;;;10.10;99.90;;;;;;5016939;28;20417;-61
2022/04/15 00:06:20;;;;;;;14.52;8.65;;;9.90;99.90;;;;;;5045351;28;20029;-62
2022/04/15 00:09:26;;;;;;;17.73;11.52;;;9.80;99.90;;;;;;5040622;28;20435;-62
2022/04/15 00:12:51;;;;;;;12.05;9.38;;;9.60;99.90;;;;;;5006329;28;20038;-61
2022/04/15 00:16:16;;;;;;;17.42;11.43;;;9.50;99.90;;;;;;5034414;28;20132;-61
2022/04/15 00:19:42;;;;;;;14.05;9.38;;;9.40;99.90;;;;;;5033986;28;20040;-61
2022/04/15 00:23:07;;;;;;;14.65;9.05;;;9.30;99.90;;;;;;5038321;28;20049;-61
2022/04/15 00:26:33;;;;;;;14.93;9.77;;;9.10;99.90;;;;;;5033905;28;20558;-62
2022/04/15 00:29:58;;;;;;;17.02;10.20;;;9.00;99.90;;;;;;5040681;28;20044;-62
2022/04/15 00:33:23;;;;;;;15.40;9.68;;;8.90;99.90;;;;;;5032606;28;20072;-62
2022/04/15 00:36:49;;;;;;;15.98;9.60;;;8.80;99.90;;;;;;5005551;28;20049;-62
2022/04/15 00:40:14;;;;;;;13.10;9.60;;;8.70;99.90;;;;;;5036704;28;20053;-61
2022/04/15 00:43:00;;;;;;;15.65;9.60;;;8.70;99.90;;;;;;5040310;28;20055;-71
2022/04/15 00:45:25;;;;;;;14.05;9.25;;;8.60;99.90;;;;;;5044176;28;20675;-70
2022/04/15 00:47:58;;;;;;;19.50;10.73;;;8.50;99.90;;;;;;5029274;28;20032;-71
2022/04/15 00:50:26;;;;;;;17.73;10.32;;;8.50;99.90;;;;;;5034270;28;20053;-72
2022/04/15 00:52:55;;;;;;;19.13;12.20;;;8.50;99.90;;;;;;5042700;28;20039;-71
2022/04/15 00:55:22;;;;;;;17.45;11.27;;;8.60;99.90;;;;;;5045657;28;20249;-70
2022/04/15 00:57:58;;;;;;;18.20;10.57;;;8.70;99.90;;;;;;5025878;28;20033;-71
2022/04/15 01:01:05;;;;;;;21.58;12.15;;;8.90;99.90;;;;;;5027726;28;20586;-71
2022/04/15 01:04:29;;;;;;;17.70;10.55;;;9.00;99.90;;;;;;5024891;28;20061;-71
2022/04/15 01:08:00;;;;;;;18.95;10.65;;;9.10;99.90;;;;;;5037726;28;20052;-70
2022/04/15 01:11:03;;;;;;;;;;;9.10;99.90;;;;;;5034464;28;20072;-66
2022/04/15 01:14:29;;;;;;;13.60;9.10;;;9.00;99.90;;;;;;5029364;28;19919;-66
2022/04/15 01:17:54;;;;;;;15.95;10.68;;;9.10;99.90;;;;;;5038363;28;20496;-64
2022/04/15 01:21:19;;;;;;;13.65;8.60;;;9.20;99.90;;;;;;5043112;28;20064;-65
2022/04/15 01:24:44;;;;;;;12.55;9.07;;;9.20;99.90;;;;;;5035285;28;20029;-66
2022/04/15 01:28:16;;;;;;;16.67;9.60;;;9.30;99.90;;;;;;5006664;28;20046;-66
2022/04/15 01:31:38;;;;;;;15.23;10.73;;;9.40;99.90;;;;;;5042889;28;20035;-66
2022/04/15 01:35:06;;;;;;;16.02;11.05;;;9.40;99.90;;;;;;5030926;28;20038;-66
2022/04/15 01:38:29;;;;;;;16.85;10.35;;;9.50;99.90;;;;;;5040041;28;20420;-66
2022/04/15 01:41:57;;;;;;;15.55;9.90;;;9.50;99.90;;;;;;5040862;28;20081;-66
2022/04/15 01:45:22;;;;;;;16.05;10.45;;;9.50;99.90;;;;;;5028004;28;20041;-66
2022/04/15 01:48:48;;;;;;;16.40;10.98;;;9.50;99.90;;;;;;5041314;28;20029;-66
2022/04/15 01:52:13;;;;;;;17.10;9.85;;;9.60;99.90;;;;;;5038172;28;20076;-66
2022/04/15 01:55:39;;;;;;;15.57;10.32;;;9.60;99.90;;;;;;5025712;28;20113;-66
2022/04/15 01:59:09;;;;;;;16.67;9.88;;;9.60;99.90;;;;;;5038510;28;20432;-65
2022/04/15 02:02:29;;;;;;;17.50;8.60;;;9.60;99.90;;;;;;5026672;28;20129;-66
2022/04/15 02:05:55;;;;;;;14.68;9.02;;;9.60;99.90;;;;;;5040454;28;20037;-66
2022/04/15 02:09:20;;;;;;;10.93;7.22;;;9.60;99.90;;;;;;5038337;28;20045;-66
2022/04/15 02:12:45;;;;;;;14.55;8.20;;;9.50;99.90;;;;;;5011726;28;20045;-66
2022/04/15 02:16:11;;;;;;;11.40;7.63;;;9.50;99.90;;;;;;5044708;28;20192;-66
2022/04/15 02:19:36;;;;;;;11.57;8.02;;;9.40;99.90;;;;;;5033818;28;20034;-67
2022/04/15 02:23:01;;;;;;;10.55;6.57;;;9.30;99.90;;;;;;5011459;28;20501;-66
2022/04/15 02:26:27;;;;;;;12.65;8.07;;;9.20;99.90;;;;;;5043217;28;20033;-66
2022/04/15 02:29:52;;;;;;;10.48;7.15;;;9.10;99.90;;;;;;5031413;28;20048;-66
2022/04/15 02:33:18;;;;;;;11.15;7.35;;;9.10;99.90;;;;;;5049898;28;20044;-67
2022/04/15 02:36:43;;;;;;;10.38;6.70;;;9.00;99.90;;;;;;5049019;28;20028;-67
2022/04/15 02:39:28;;;;;;;11.25;7.40;;;8.80;99.90;;;;;;5032396;28;20091;-66
2022/04/15 02:41:56;;;;;;;15.52;9.35;;;8.70;99.90;;;;;;5050376;28;20489;-67
2022/04/15 02:44:22;;;;;;;11.20;6.72;;;8.60;99.90;;;;;;5039889;28;20510;-65
2022/04/15 02:46:47;;;;;;;14.00;8.02;;;8.50;99.90;;;;;;5031379;28;20033;-66
2022/04/15 02:49:14;;;;;;;11.55;7.38;;;8.30;99.90;;;;;;5046822;28;20021;-66
2022/04/15 02:51:39;;;;;;;11.75;8.15;;;8.20;99.90;;;;;;5030886;28;20132;-67
2022/04/15 02:54:05;;;;;;;15.95;8.40;;;8.00;99.90;;;;;;5047902;28;20475;-66
2022/04/15 02:56:30;;;;;;;13.20;7.88;;;7.90;99.90;;;;;;5030660;28;20110;-67
2022/04/15 02:58:56;;;;;;;10.43;6.85;;;7.80;99.90;;;;;;5047278;28;20112;-67
2022/04/15 03:02:01;;;;;;;16.17;8.07;;;7.70;99.90;;;;;;5025014;28;20033;-65
2022/04/15 03:05:27;;;;;;;10.13;6.43;;;7.60;99.90;;;;;;5023244;28;20041;-67
2022/04/15 03:08:52;;;;;;;13.20;7.03;;;7.50;99.90;;;;;;5046541;28;20037;-66
2022/04/15 03:12:17;;;;;;;10.93;7.00;;;7.60;99.90;;;;;;5035543;28;20044;-66
2022/04/15 03:15:43;;;;;;;13.30;7.57;;;7.70;99.90;;;;;;5041421;28;20037;-66
2022/04/15 03:19:08;;;;;;;10.63;6.38;;;7.80;99.90;;;;;;5044414;28;20318;-66
2022/04/15 03:22:34;;;;;;;9.90;7.20;;;7.80;99.90;;;;;;5032661;28;20138;-67
2022/04/15 03:25:59;;;;;;;9.63;6.38;;;7.90;99.90;;;;;;5045479;28;20477;-66
2022/04/15 03:29:24;;;;;;;10.75;6.35;;;7.90;99.90;;;;;;5040679;28;20067;-66
2022/04/15 03:32:50;;;;;;;13.20;5.95;;;7.90;99.90;;;;;;5010022;28;20501;-66
2022/04/15 03:36:15;;;;;;;8.32;5.47;;;8.00;99.90;;;;;;5047848;28;20033;-66
2022/04/15 03:39:40;;;;;;;7.60;5.00;;;8.00;99.90;;;;;;5029077;28;20033;-66
2022/04/15 03:43:06;;;;;;;11.10;5.85;;;8.10;99.90;;;;;;5044271;28;20048;-66
2022/04/15 03:46:31;;;;;;;7.93;5.43;;;8.10;99.90;;;;;;5044023;28;20099;-68
2022/04/15 03:49:56;;;;;;;7.70;5.45;;;8.20;99.90;;;;;;5027953;28;20399;-66
2022/04/15 03:53:05;;;;;;;10.00;4.75;;;8.20;99.90;;;;;;5009838;28;20042;-66
2022/04/15 03:55:31;;;;;;;7.95;4.90;;;8.20;99.90;;;;;;4991781;28;20125;-66
2022/04/15 03:58:36;;;;;;;7.80;4.93;;;8.20;99.90;;;;;;5048258;28;20120;-66
2022/04/15 04:02:01;;;;;;;13.20;5.65;;;8.20;99.90;;;;;;5035826;28;20132;-66
2022/04/15 04:05:27;;;;;;;8.35;6.00;;;8.20;99.90;;;;;;5022305;28;20536;-66
2022/04/15 04:08:52;;;;;;;10.15;6.32;;;8.30;99.90;;;;;;5045495;28;20131;-66
2022/04/15 04:12:18;;;;;;;10.13;5.65;;;8.30;99.90;;;;;;5009710;28;20504;-66
2022/04/15 04:15:43;;;;;;;8.55;5.43;;;8.30;99.90;;;;;;5040756;28;20052;-66
2022/04/15 04:19:08;;;;;;;9.18;6.45;;;8.30;99.90;;;;;;5036146;28;20052;-66
2022/04/15 04:22:34;;;;;;;12.20;6.60;;;8.30;99.90;;;;;;5009341;28;20493;-66
2022/04/15 04:25:59;;;;;;;10.27;6.20;;;8.40;99.90;;;;;;5044786;28;20039;-66
2022/04/15 04:29:24;;;;;;;9.25;6.38;;;8.30;99.90;;;;;;5036091;28;20045;-66
2022/04/15 04:32:50;;;;;;;8.40;5.53;;;8.40;99.90;;;;;;5009204;28;20410;-66
2022/04/15 04:36:15;;;;;;;11.00;6.30;;;8.40;99.90;;;;;;5037769;28;20037;-66
2022/04/15 04:39:41;;;;;;;13.15;6.55;;;8.40;99.90;;;;;;5043364;28;20033;-66
2022/04/15 04:43:06;;;;;;;10.45;6.70;;;8.40;99.90;;;;;;5037543;28;20103;-66
2022/04/15 04:46:31;;;;;;;12.73;7.57;;;8.50;99.90;;;;;;5043099;28;20111;-66
2022/04/15 04:49:57;;;;;;;9.70;6.65;;;8.40;99.90;;;;;;5027134;28;20117;-66
2022/04/15 04:53:22;;;;;;;8.00;6.18;;;8.50;99.90;;;;;;5009121;28;20034;-66
2022/04/15 04:56:47;;;;;;;9.25;6.38;;;8.50;99.90;;;;;;5045076;28;20139;-66
2022/04/15 05:00:13;;;;;;;11.27;6.95;;;8.60;99.90;;;;;;5032344;28;20033;-66
2022/04/15 05:03:38;;;;;;;10.52;7.20;;;8.50;99.90;;;;;;5030326;28;20044;-66
2022/04/15 05:07:03;;;;;;;8.75;5.90;;;8.50;99.90;;;;;;5046973;28;20040;-65
2022/04/15 05:10:29;;;;;;;9.98;7.50;;;8.60;99.90;;;;;;5032951;28;20040;-61
2022/04/15 05:13:54;;;;;;;9.02;6.03;;;8.60;99.90;;;;;;5045425;28;20059;-60
2022/04/15 05:17:19;;;;;;;11.77;7.20;;;8.60;99.90;;;;;;5033895;28;20421;-60
2022/04/15 05:20:45;;;;;;;9.90;6.43;;;8.60;99.90;;;;;;5044077;28;20041;-60
2022/04/15 05:24:10;;;;;;;11.68;6.35;;;8.70;99.90;;;;;;5039302;28;20025;-60
2022/04/15 05:27:36;;;;;;;8.10;5.60;;;8.80;99.90;;;;;;5015562;28;20527;-60
2022/04/15 05:31:01;;;;;;;10.50;6.80;;;8.80;99.90;;;;;;5012267;28;20042;-60
2022/04/15 05:34:26;;;;;;;9.68;5.95;;;8.90;99.90;;;;;;5047888;28;20036;-60
2022/04/15 05:37:52;;;;;;;9.40;5.95;;;8.90;99.90;;;;;;5039460;28;20040;-60
2022/04/15 05:41:17;;;;;;;10.85;6.43;;;9.00;99.90;;;;;;5012486;28;20149;-60
2022/04/15 05:44:43;;;;;;;6.32;4.88;;;9.00;99.90;;;;;;5041242;28;20515;-61
2022/04/15 05:48:08;;;;;;;13.40;6.78;;;9.00;99.90;;;;;;5031613;28;20508;-60
2022/04/15 05:51:33;;;;;;;9.35;5.55;;;9.10;99.90;;;;;;5046627;28;20076;-60
2022/04/15 05:54:59;;;;;;;8.98;6.05;;;9.10;99.90;;;;;;5046041;28;20040;-60
2022/04/15 05:58:24;;;;;;;10.60;6.90;;;9.20;99.90;;;;;;5033250;28;20124;-60
2022/04/15 06:01:51;;;;;;;8.73;6.22;;;9.30;99.90;;;;;;5032429;28;20095;-61
2022/04/15 06:05:15;;;;;;;10.32;6.38;;;9.40;99.90;;;;;;5049348;28;20033;-60
2022/04/15 06:08:00;;;;;;;9.65;5.88;;;9.50;99.90;;;;;;5025483;28;20076;-60
2022/04/15 06:11:06;;;;;;;9.02;6.18;;;9.60;99.90;;;;;;5051911;28;20040;-61
2022/04/15 06:14:33;;;;;;;7.35;5.85;;;9.70;99.90;;;;;;5046081;28;20120;-60
2022/04/15 06:17:56;;;;;;;8.70;5.82;;;9.70;99.90;;;;;;5038933;28;20041;-60
2022/04/15 06:21:25;;;;;;;8.73;5.65;;;9.80;99.90;;;;;;5045787;28;20458;-59
2022/04/15 06:24:50;;;;;;;9.48;6.85;;;9.90;99.90;;;;;;5047876;28;20033;-60
2022/04/15 06:28:16;;;;;;;10.82;7.28;;;10.20;99.90;;;;;;5041818;28;20072;-59
2022/04/15 06:31:41;;;;;;;9.88;6.88;;;10.40;99.90;;;;;;5028346;28;20556;-60
2022/04/15 06:35:06;;;;;;;9.60;6.18;;;10.50;99.90;;;;;;5030288;28;20030;-59
2022/04/15 06:38:31;;;;;;;10.07;5.78;;;10.50;99.90;;;;;;5033267;28;20044;-59
2022/04/15 06:41:57;;;;;;;7.38;5.05;;;10.40;99.90;;;;;;5044654;28;20059;-60
2022/04/15 06:44:22;;;;;;;8.13;5.50;;;10.40;99.90;;;;;;5028443;28;20040;-58
2022/04/15 06:46:47;;;;;;;9.65;5.13;;;10.30;99.90;;;;;;5045823;28;20033;-57
2022/04/15 06:49:53;;;;;;;8.60;6.50;;;10.30;99.90;;;;;;5045262;28;20033;-58
2022/04/15 06:53:18;;;;;;;9.63;6.43;;;10.30;99.90;;;;;;5028160;28;20038;-57
2022/04/15 06:56:44;;;;;;;9.05;5.93;;;10.20;99.90;;;;;;5038594;28;20039;-57
2022/04/15 07:00:11;;;;;;;10.43;5.15;;;10.20;99.90;;;;;;5034855;28;20058;-60
2022/04/15 07:03:34;;;;;;;5.47;4.13;;;10.30;99.90;;;;;;5043926;28;20044;-56
2022/04/15 07:07:00;;;;;;;7.32;5.13;;;10.20;99.90;;;;;;5042537;28;20040;-58
2022/04/15 07:10:25;;;;;;;6.80;4.80;;;10.30;99.90;;;;;;5028323;28;20037;-58
2022/04/15 07:13:51;;;;;;;6.82;4.70;;;10.40;99.90;;;;;;5032916;28;20041;-59
2022/04/15 07:17:16;;;;;;;6.00;5.00;;;10.50;99.90;;;;;;5044639;28;20068;-58
2022/04/15 07:20:42;;;;;;;7.00;4.05;;;10.60;99.90;;;;;;5043938;28;20048;-55
2022/04/15 07:24:07;;;;;;;6.72;4.63;;;10.60;99.90;;;;;;5038052;28;20033;-58
2022/04/15 07:27:32;;;;;;;7.82;4.57;;;10.70;99.90;;;;;;5040000;28;20068;-59
2022/04/15 07:30:57;;;;;;;6.90;5.28;;;10.60;99.90;;;;;;5029258;28;20033;-58
2022/04/15 07:34:23;;;;;;;7.13;4.55;;;10.60;99.90;;;;;;5037770;28;20637;-58
2022/04/15 07:37:48;;;;;;;5.18;3.88;;;10.60;99.90;;;;;;5041924;28;20033;-59
2022/04/15 07:41:13;;;;;;;7.10;4.93;;;10.50;99.90;;;;;;5046960;28;20512;-58
2022/04/15 07:44:39;;;;;;;8.02;5.60;;;10.50;99.90;;;;;;5032786;28;20037;-59
2022/04/15 07:48:04;;;;;;;5.88;4.22;;;10.40;99.90;;;;;;5032273;28;20133;-58
2022/04/15 07:51:30;;;;;;;7.10;4.57;;;10.40;99.90;;;;;;5029748;28;20049;-59
2022/04/15 07:54:55;;;;;;;5.47;4.15;;;10.30;99.90;;;;;;5041147;28;20033;-59
2022/04/15 07:58:20;;;;;;;11.07;5.15;;;10.30;99.90;;;;;;5036535;28;20531;-60
2022/04/15 08:01:46;;;;;;;6.10;4.85;;;10.30;99.90;;;;;;5004215;28;20133;-58
2022/04/15 08:05:11;;;;;;;7.97;5.10;;;10.30;99.90;;;;;;5045221;28;20467;-60
2022/04/15 08:08:36;;;;;;;6.75;4.72;;;10.30;99.90;;;;;;5044009;28;20039;-59
2022/04/15 08:12:02;;;;;;;6.75;5.10;;;10.40;99.90;;;;;;5009670;28;20034;-60
2022/04/15 08:15:27;;;;;;;8.43;5.20;;;10.50;99.90;;;;;;5038221;28;20037;-60
2022/04/15 08:18:54;;;;;;;7.95;4.90;;;10.40;99.90;;;;;;5043737;28;20044;-60
2022/04/15 08:22:18;;;;;;;11.35;6.28;;;10.50;99.90;;;;;;5037359;28;20389;-59
2022/04/15 08:25:44;;;;;;;8.10;4.75;;;10.50;99.90;;;;;;5043728;28;20033;-59
2022/04/15 08:29:09;;;;;;;8.50;4.97;;;10.50;99.90;;;;;;5024739;28;20041;-59
2022/04/15 08:32:34;;;;;;;7.32;5.28;;;10.40;99.90;;;;;;5043511;28;20481;-59
2022/04/15 08:36:00;;;;;;;7.80;5.45;;;10.40;99.90;;;;;;5037853;28;20091;-59
2022/04/15 08:39:25;;;;;;;7.95;5.38;;;10.40;99.90;;;;;;5031457;28;20057;-59
2022/04/15 08:42:50;;;;;;;6.47;4.70;;;10.40;99.90;;;;;;5046655;28;20044;-60
2022/04/15 08:46:16;;;;;;;8.07;5.13;;;10.40;99.90;;;;;;5030142;28;20476;-59
2022/04/15 08:49:41;;;;;;;8.85;5.30;;;10.40;99.90;;;;;;5035668;28;20052;-60
2022/04/15 08:53:22;;;;;;;8.13;4.75;;;10.40;99.90;;;;;;5041567;28;20083;-60
2022/04/15 08:56:46;;;;;;;6.72;4.90;;;10.40;99.90;;;;;;5029112;28;20026;-60
2022/04/15 09:00:12;;;;;;;6.93;4.78;;;10.40;99.90;;;;;;5043236;28;20108;-60
2022/04/15 09:03:37;;;;;;;9.05;4.40;;;10.40;99.90;;;;;;5041028;28;20631;-60
2022/04/15 09:07:03;;;;;;;12.50;6.00;;;10.40;99.90;;;;;;5008830;28;20041;-60
2022/04/15 09:10:28;;;;;;;9.98;5.60;;;10.40;99.90;;;;;;5045714;28;20037;-72
2022/04/15 09:13:59;;;;;;;7.35;4.53;;;10.40;99.90;;;;;;5033780;28;20040;-72
2022/04/15 09:17:25;;;;;;;6.72;4.88;;;10.40;99.90;;;;;;5047716;28;20045;-72
2022/04/15 09:20:50;;;;;;;7.10;4.32;;;10.40;99.90;;;;;;5044924;28;20170;-73
2022/04/15 09:24:17;;;;;;;7.75;5.28;;;10.40;99.90;;;;;;5029591;28;20033;-74
2022/04/15 09:27:44;;;;;;;7.55;4.70;;;10.40;99.90;;;;;;5028069;28;20042;-72
2022/04/15 09:30:39;;;;;;;8.07;5.65;;;10.30;99.90;;;;;;5040623;28;20492;-72
2022/04/15 09:33:45;;;;;;;7.95;5.00;;;10.30;99.90;;;;;;5031025;28;20480;-72
2022/04/15 09:37:10;;;;;;;8.68;5.38;;;10.30;99.90;;;;;;5029325;28;20082;-72
2022/04/15 09:40:44;;;;;;;9.05;4.75;;;10.30;99.90;;;;;;5045310;28;20077;-73
2022/04/15 09:44:13;;;;;;;7.65;4.75;;;10.20;99.90;;;;;;5033723;28;20432;-74
2022/04/15 09:47:39;;;;;;;6.03;4.45;;;10.30;99.90;;;;;;5036992;28;20040;-74
2022/04/15 09:51:03;;;;;;;7.18;5.30;;;10.30;99.90;;;;;;5042200;28;20055;-72
2022/04/15 09:54:43;;;;;;;12.18;5.40;;;10.30;99.90;;;;;;5031873;28;20048;-73
2022/04/15 09:58:09;;;;;;;7.82;4.90;;;10.40;99.90;;;;;;5049051;28;20032;-73
2022/04/15 10:01:34;;;;;;;7.80;4.90;;;10.30;99.90;;;;;;5039091;28;20107;-73
2022/04/15 10:04:59;;;;;;;10.52;5.47;;;10.30;99.90;;;;;;5012128;28;20030;-73
2022/04/15 10:08:25;;;;;;;7.57;5.05;;;10.40;99.90;;;;;;5040430;28;20043;-73
2022/04/15 10:11:50;;;;;;;6.43;4.25;;;10.30;99.90;;;;;;5046015;28;20063;-73
2022/04/15 10:15:16;;;;;;;8.15;4.85;;;10.30;99.90;;;;;;5047992;28;20041;-73
2022/04/15 10:18:41;;;;;;;8.43;4.60;;;10.30;99.90;;;;;;5045961;28;20654;-73
2022/04/15 10:22:06;;;;;;;6.45;4.00;;;10.20;99.90;;;;;;5027437;28;20099;-73
2022/04/15 10:25:32;;;;;;;9.02;3.88;;;10.20;99.90;;;;;;5048239;28;20044;-73
2022/04/15 10:29:00;;;;;;;6.75;4.65;;;10.10;99.90;;;;;;5040210;28;20040;-73
2022/04/15 10:32:31;;;;;;;5.45;4.28;;;10.10;99.90;;;;;;5024760;28;20434;-73
2022/04/15 10:36:00;;;;;;;7.43;4.32;;;10.20;99.90;;;;;;5043266;28;20536;-73
2022/04/15 10:39:03;;;;;;;;;;;10.30;99.90;;;;;;5032085;28;20124;-73
2022/04/15 10:42:29;;;;;;;4.35;3.33;;;10.40;99.90;;;;;;5023654;28;19917;-73
2022/04/15 10:45:54;;;;;;;6.22;4.40;;;10.60;99.90;;;;;;5045224;28;20492;-74
2022/04/15 10:49:20;;;;;;;4.70;3.55;;;10.70;99.90;;;;;;5032788;28;20072;-72
2022/04/15 10:53:00;;;;;;;5.03;3.35;;;10.90;99.90;;;;;;5041768;28;20040;-74
2022/04/15 10:56:26;;;;;;;4.95;3.30;;;10.90;99.90;;;;;;5045684;28;20102;-73
2022/04/15 11:03:15;;;;;;;6.28;3.03;;;10.90;99.90;;;;;;5042030;28;20087;-71
2022/04/15 11:06:46;;;;;;;5.13;3.35;;;10.90;99.90;;;;;;5030743;28;20388;-71
2022/04/15 11:10:12;;;;;;;4.30;3.08;;;10.80;99.90;;;;;;5045015;28;20040;-71
2022/04/15 11:13:24;;;;;;;4.47;3.00;;;10.70;99.90;;;;;;5044795;28;20708;-71
2022/04/15 11:16:57;;;;;;;4.18;2.80;;;10.60;99.90;;;;;;5050655;28;20029;-69
2022/04/15 11:20:23;;;;;;;4.15;2.83;;;10.50;99.90;;;;;;5029009;28;20830;-66
2022/04/15 11:23:48;;;;;;;3.08;2.70;;;10.60;99.90;;;;;;5039590;28;20036;-67
2022/04/15 11:27:17;;;;;;;4.00;3.00;;;10.90;99.90;;;;;;5047425;28;20132;-65
2022/04/15 11:30:43;;;;;;;5.40;2.63;;;11.10;99.90;;;;;;5027048;28;20029;-67
2022/04/15 11:34:07;;;;;;;3.58;3.13;;;11.20;99.90;;;;;;5044713;28;20032;-65
2022/04/15 11:37:33;;;;;;;3.92;2.53;;;11.50;99.90;;;;;;5024336;28;20044;-64
2022/04/15 11:40:58;;;;;;;2.92;2.30;;;12.00;99.90;;;;;;5026197;28;20038;-65
2022/04/15 11:44:43;;;;;;;2.88;2.60;;;11.90;99.90;;;;;;5040542;28;20029;-65
2022/04/15 11:48:07;;;;;;;3.30;1.50;;;12.00;99.90;;;;;;5044761;28;20489;-66
2022/04/15 11:51:33;;;;;;;1.50;1.40;;;12.10;99.90;;;;;;5046792;28;20107;-65
2022/04/15 11:55:01;;;;;;;1.20;1.10;;;12.00;99.90;;;;;;5024888;28;20038;-67
2022/04/15 11:58:06;;;;;;;;;;;12.10;99.90;;;;;;5030733;28;20049;-67
2022/04/15 12:01:32;;;;;;;5.22;1.90;;;12.10;99.90;;;;;;5030003;28;19971;-71
2022/04/15 12:04:57;;;;;;;4.95;4.07;;;12.20;99.90;;;;;;5027495;28;20562;-70
2022/04/15 12:08:23;;;;;;;1.90;1.70;;;12.50;99.90;;;;;;5046610;28;20067;-70
2022/04/15 12:11:49;;;;;;;1.60;1.45;;;12.50;99.90;;;;;;5022738;28;20068;-70
2022/04/15 12:15:16;;;;;;;0.90;0.90;;;12.50;99.90;;;;;;5040583;28;20524;-69
2022/04/15 12:18:22;;;;;;;;;;;12.30;99.90;;;;;;5042913;28;20044;-70
2022/04/15 12:21:48;;;;;;;1.58;1.40;;;12.10;99.90;;;;;;5032542;28;20087;-70
2022/04/15 12:25:12;;;;;;;1.27;0.98;;;12.10;99.90;;;;;;5042142;28;20396;-69
2022/04/15 12:32:05;;;;;;;0.88;0.80;;;12.00;99.90;;;;;;5041344;28;20099;-70
2022/04/15 12:34:59;;;;;;;1.45;0.80;;;11.80;99.90;;;;;;5011058;28;20038;-70
2022/04/15 12:38:25;;;;;;;0.70;0.70;;;11.90;99.90;;;;;;5048012;28;20393;-71
2022/04/15 12:41:59;;;;;;;1.60;1.50;;;11.90;99.90;;;;;;5021913;28;20037;-70
2022/04/15 12:44:52;;;;;;;1.40;1.30;;;12.00;99.90;;;;;;5039919;28;20029;-70
2022/04/15 12:47:17;;;;;;;2.25;1.10;;;12.40;99.90;;;;;;5047646;28;20025;-72
2022/04/15 12:49:42;;;;;;;1.15;1.05;;;12.50;99.90;;;;;;5029648;28;20044;-70
2022/04/15 12:52:13;;;;;;;1.85;1.42;;;12.70;99.90;;;;;;5027774;28;20041;-69
2022/04/15 12:55:26;;;;;;;2.47;1.48;;;12.40;99.90;;;;;;5045023;28;20404;-71
2022/04/15 12:57:52;;;;;;;2.25;1.40;;;12.30;99.90;;;;;;4969720;28;20617;-69
2022/04/15 13:00:17;;;;;;;1.42;1.33;;;12.20;99.90;;;;;;4976954;28;20133;-60
2022/04/15 13:02:43;;;;;;;1.98;1.77;;;12.10;99.90;;;;;;5014033;28;20400;-61
2022/04/15 13:05:09;;;;;;;2.35;2.15;;;12.00;99.90;;;;;;5027992;28;20035;-61
2022/04/15 13:07:36;;;;;;;1.98;1.42;;;12.00;99.90;;;;;;5045110;28;20033;-61
2022/04/15 13:10:04;;;;;;;2.30;1.60;;;12.00;99.90;;;;;;5028110;28;20078;-60
2022/04/15 13:12:30;;;;;;;3.15;1.67;;;12.10;99.90;;;;;;5024581;28;20033;-60
2022/04/15 13:14:55;;;;;;;2.63;2.10;;;12.30;99.90;;;;;;5044489;28;20527;-60
2022/04/15 13:17:22;;;;;;;2.72;1.60;;;12.50;99.90;;;;;;5043147;28;20552;-60
2022/04/15 13:19:48;;;;;;;1.60;1.50;;;12.50;99.90;;;;;;5044991;28;20114;-60
2022/04/15 13:22:15;;;;;;;2.15;1.60;;;12.40;99.90;;;;;;5028013;28;20458;-60
2022/04/15 13:24:41;;;;;;;2.63;2.13;;;12.30;99.90;;;;;;5043696;28;20025;-60
2022/04/15 13:27:07;;;;;;;1.90;1.67;;;12.10;99.90;;;;;;5029831;28;20033;-59
2022/04/15 13:29:33;;;;;;;3.17;2.33;;;11.90;99.90;;;;;;5048625;28;20036;-60
2022/04/15 13:32:00;;;;;;;3.03;2.08;;;11.80;99.90;;;;;;5031883;28;20034;-60
2022/04/15 13:34:26;;;;;;;2.72;2.25;;;11.50;99.90;;;;;;5048515;28;20079;-59
2022/04/15 13:36:51;;;;;;;3.15;2.85;;;11.40;99.90;;;;;;5034118;28;20521;-60
2022/04/15 13:39:17;;;;;;;3.83;3.20;;;11.30;99.90;;;;;;5036635;28;20045;-60
2022/04/15 13:41:43;;;;;;;2.90;2.50;;;11.20;99.90;;;;;;5046037;28;20524;-60
2022/04/15 13:44:09;;;;;;;3.55;3.20;;;11.10;99.90;;;;;;5029730;28;20030;-60
2022/04/15 13:46:35;;;;;;;3.65;2.85;;;10.90;99.90;;;;;;5047124;28;20151;-60
2022/04/15 13:49:01;;;;;;;5.18;3.33;;;10.70;99.90;;;;;;5049110;28;20078;-60
2022/04/15 13:51:28;;;;;;;2.70;2.08;;;10.80;99.90;;;;;;5036977;28;20037;-59
2022/04/15 13:56:41;;;;;;;3.33;2.40;;;10.90;99.90;;;;;;5038436;28;20064;-60
2022/04/15 13:59:09;;;;;;;4.72;2.65;;;10.80;99.90;;;;;;5031481;28;20060;-59
2022/04/15 14:01:37;;;;;;;5.38;3.83;;;10.60;99.90;;;;;;5040879;28;20504;-59
2022/04/15 14:04:12;;;;;;;7.10;4.82;;;10.40;99.90;;;;;;5034517;28;20033;-59
2022/04/15 14:06:49;;;;;;;7.97;4.60;;;10.30;99.90;;;;;;5037786;28;20025;-59
2022/04/15 14:09:16;;;;;;;7.47;5.13;;;10.50;99.90;;;;;;5035754;28;20039;-59
2022/04/15 14:11:44;;;;;;;8.15;5.18;;;10.60;99.90;;;;;;5046554;28;20037;-59
2022/04/15 14:14:14;;;;;;;8.18;5.63;;;10.40;99.90;;;;;;5029422;28;20083;-59
2022/04/15 14:16:41;;;;;;;7.72;5.38;;;10.40;99.90;;;;;;5046988;28;20045;-59
2022/04/15 14:19:09;;;;;;;7.68;5.00;;;10.30;99.90;;;;;;5029339;28;20022;-59
2022/04/15 14:21:35;;;;;;;12.98;7.38;;;10.20;99.90;;;;;;5046441;28;20580;-60
2022/04/15 14:24:00;;;;;;;10.20;6.45;;;10.00;99.90;;;;;;5029597;28;20442;-60
2022/04/15 14:26:26;;;;;;;12.57;7.70;;;10.00;99.90;;;;;;5045994;28;20047;-59
2022/04/15 14:28:51;;;;;;;12.25;7.95;;;9.90;99.90;;;;;;5044910;28;20431;-60
2022/04/15 14:31:17;;;;;;;12.93;7.50;;;9.70;99.90;;;;;;5044684;28;20067;-60
2022/04/15 14:33:43;;;;;;;15.13;8.73;;;9.80;99.90;;;;;;5048947;28;20388;-60
2022/04/15 14:36:09;;;;;;;10.57;7.25;;;9.70;99.90;;;;;;5033257;28;20029;-60
2022/04/15 14:38:37;;;;;;;18.27;10.50;;;9.70;99.90;;;;;;5048139;28;20071;-60
2022/04/15 14:41:04;;;;;;;20.85;10.48;;;9.50;99.90;;;;;;5035039;28;20496;-60
2022/04/15 14:43:40;;;;;;;24.20;14.20;;;9.30;99.90;;;;;;5048980;28;20104;-59
2022/04/15 14:46:06;;;;;;;23.13;12.23;;;9.20;99.90;;;;;;5018805;28;20086;-59
2022/04/15 14:48:36;;;;;;;19.90;11.60;;;9.20;99.90;;;;;;5048032;28;20091;-60
2022/04/15 14:51:03;;;;;;;17.60;9.50;;;9.20;99.90;;;;;;5046204;28;20056;-59
2022/04/15 14:53:33;;;;;;;17.98;11.77;;;9.10;99.90;;;;;;5048615;28;20025;-59
2022/04/15 14:56:00;;;;;;;19.38;11.32;;;9.00;99.90;;;;;;5016741;28;20067;-60
2022/04/15 14:58:26;;;;;;;18.45;10.82;;;9.00;99.90;;;;;;5048433;28;20025;-59
2022/04/15 15:00:52;;;;;;;15.15;8.55;;;9.00;99.90;;;;;;5040030;28;20035;-59
2022/04/15 15:03:19;;;;;;;16.88;10.00;;;8.90;99.90;;;;;;5048307;28;20094;-59
2022/04/15 15:05:45;;;;;;;14.48;8.82;;;8.80;99.90;;;;;;5029745;28;20070;-59
2022/04/15 15:08:11;;;;;;;18.23;10.73;;;8.60;99.90;;;;;;5048698;28;20356;-59
2022/04/15 15:10:36;;;;;;;14.15;8.63;;;8.50;99.90;;;;;;5045931;28;20040;-60
2022/04/15 15:13:02;;;;;;;15.77;9.30;;;8.50;99.90;;;;;;5048053;28;20024;-59
2022/04/15 15:15:28;;;;;;;15.15;8.45;;;8.40;99.90;;;;;;5045944;28;20071;-59
2022/04/15 15:17:54;;;;;;;14.48;8.20;;;8.20;99.90;;;;;;5048413;28;20017;-59
2022/04/15 15:20:20;;;;;;;13.25;8.45;;;8.20;99.90;;;;;;5048071;28;20033;-59
2022/04/15 15:22:46;;;;;;;17.75;9.05;;;8.20;99.90;;;;;;5046264;28;20033;-59
2022/04/15 15:30:45;;;;;;;11.82;7.63;;;8.00;99.90;;;;;;5021600;28;20063;-59
2022/04/15 15:33:14;;;;;;;14.10;7.72;;;7.90;99.90;;;;;;5037779;28;20021;-59
2022/04/15 15:35:40;;;;;;;21.00;9.32;;;7.90;99.90;;;;;;5045165;28;20145;-59
2022/04/15 15:38:06;;;;;;;14.73;8.45;;;7.90;99.90;;;;;;5047593;28;20487;-59
2022/04/15 15:40:33;;;;;;;15.52;9.00;;;7.90;99.90;;;;;;5031036;28;20510;-59
2022/04/15 15:43:00;;;;;;;12.80;8.80;;;7.90;99.90;;;;;;5047910;28;20139;-59
2022/04/15 15:45:28;;;;;;;15.75;9.10;;;7.80;99.90;;;;;;5026168;28;20259;-59
2022/04/15 15:47:54;;;;;;;12.80;8.00;;;7.90;99.90;;;;;;5047492;28;20049;-59
2022/04/15 15:50:20;;;;;;;12.80;8.10;;;7.80;99.90;;;;;;5046151;28;20057;-59
2022/04/15 15:52:45;;;;;;;13.45;7.85;;;7.80;99.90;;;;;;5045286;28;20051;-59
2022/04/15 15:55:11;;;;;;;12.82;7.45;;;7.70;99.90;;;;;;5047267;28;20314;-60
2022/04/15 15:57:36;;;;;;;13.65;7.57;;;7.70;99.90;;;;;;5025843;28;20171;-61
2022/04/15 16:00:04;;;;;;;17.08;10.27;;;7.60;99.90;;;;;;5042989;28;20142;-58
2022/04/15 16:02:29;;;;;;;16.55;9.63;;;7.60;99.90;;;;;;5025132;28;20041;-60
2022/04/15 16:04:55;;;;;;;15.63;9.52;;;7.70;99.90;;;;;;5046681;28;20178;-59
2022/04/15 16:07:20;;;;;;;18.23;9.75;;;7.60;99.90;;;;;;5026076;28;20040;-60
2022/04/15 16:09:47;;;;;;;18.00;8.98;;;7.60;99.90;;;;;;5046290;28;20484;-59
2022/04/15 16:12:13;;;;;;;14.82;7.78;;;7.60;99.90;;;;;;5032149;28;20041;-59
2022/04/15 16:14:39;;;;;;;14.80;7.60;;;7.60;99.90;;;;;;5046574;28;20025;-59
2022/04/15 16:17:05;;;;;;;14.18;7.70;;;7.70;99.90;;;;;;5031121;28;20041;-59
2022/04/15 16:19:31;;;;;;;16.42;9.35;;;7.70;99.90;;;;;;5046273;28;20024;-59